sensor_id;sensor_type;location;lat;lon;timestamp;temperature;humidity
73570;SHT30;61850;54.980;73.298;2023-02-28T00:01:12;-2.40;88.76
73570;SHT30;61850;54.980;73.298;2023-02-28T00:03:44;-2.38;88.79
73570;SHT30;61850;54.980;73.298;2023-02-28T00:06:10;-2.43;88.69
73570;SHT30;61850;54.980;73.298;2023-02-28T00:08:37;-2.41;88.64
73570;SHT30;61850;54.980;73.298;2023-02-28T00:11:08;-2.44;88.58
73570;SHT30;61850;54.980;73.298;2023-02-28T00:13:37;-2.43;88.60
73570;SHT30;61850;54.980;73.298;2023-02-28T00:16:10;-2.44;88.58
73570;SHT30;61850;54.980;73.298;2023-02-28T00:18:37;-2.45;88.61
73570;SHT30;61850;54.980;73.298;2023-02-28T00:21:04;-2.44;88.63
73570;SHT30;61850;54.980;73.298;2023-02-28T00:23:31;-2.48;88.78
73570;SHT30;61850;54.980;73.298;2023-02-28T00:25:57;-2.48;88.83
73570;SHT30;61850;54.980;73.298;2023-02-28T00:28:34;-2.47;89.06
73570;SHT30;61850;54.980;73.298;2023-02-28T00:31:05;-2.52;89.18
73570;SHT30;61850;54.980;73.298;2023-02-28T00:33:31;-2.51;89.31
73570;SHT30;61850;54.980;73.298;2023-02-28T00:36:09;-2.54;89.44
73570;SHT30;61850;54.980;73.298;2023-02-28T00:46:07;-2.54;89.21
73570;SHT30;61850;54.980;73.298;2023-02-28T00:56:09;-2.54;89.03
73570;SHT30;61850;54.980;73.298;2023-02-28T01:07:02;-2.45;88.37
73570;SHT30;61850;54.980;73.298;2023-02-28T01:09:28;-2.47;88.38
73570;SHT30;61850;54.980;73.298;2023-02-28T01:12:04;-2.45;88.29
73570;SHT30;61850;54.980;73.298;2023-02-28T01:14:30;-2.48;88.26
73570;SHT30;61850;54.980;73.298;2023-02-28T01:16:56;-2.47;88.20
73570;SHT30;61850;54.980;73.298;2023-02-28T01:19:34;-2.43;88.08
73570;SHT30;61850;54.980;73.298;2023-02-28T01:22:02;-2.44;88.16
73570;SHT30;61850;54.980;73.298;2023-02-28T01:24:29;-2.43;88.05
73570;SHT30;61850;54.980;73.298;2023-02-28T01:26:55;-2.40;87.99
73570;SHT30;61850;54.980;73.298;2023-02-28T01:29:22;-2.40;87.90
73570;SHT30;61850;54.980;73.298;2023-02-28T01:31:51;-2.38;87.79
73570;SHT30;61850;54.980;73.298;2023-02-28T01:34:22;-2.38;87.60
73570;SHT30;61850;54.980;73.298;2023-02-28T01:36:50;-2.38;87.55
73570;SHT30;61850;54.980;73.298;2023-02-28T01:39:23;-2.38;87.27
73570;SHT30;61850;54.980;73.298;2023-02-28T01:41:55;-2.38;87.12
73570;SHT30;61850;54.980;73.298;2023-02-28T01:47:09;-2.33;86.60
73570;SHT30;61850;54.980;73.298;2023-02-28T01:49:45;-2.34;86.35
73570;SHT30;61850;54.980;73.298;2023-02-28T01:52:12;-2.31;86.23
73570;SHT30;61850;54.980;73.298;2023-02-28T01:54:57;-2.31;85.80
73570;SHT30;61850;54.980;73.298;2023-02-28T01:57:33;-2.36;85.72
73570;SHT30;61850;54.980;73.298;2023-02-28T02:00:08;-2.30;85.44
73570;SHT30;61850;54.980;73.298;2023-02-28T02:02:51;-2.29;85.20
73570;SHT30;61850;54.980;73.298;2023-02-28T02:05:25;-2.30;85.21
73570;SHT30;61850;54.980;73.298;2023-02-28T02:07:54;-2.27;85.03
73570;SHT30;61850;54.980;73.298;2023-02-28T02:10:24;-2.26;85.06
73570;SHT30;61850;54.980;73.298;2023-02-28T02:18:32;-2.23;85.03
73570;SHT30;61850;54.980;73.298;2023-02-28T02:29:59;-2.21;85.85
73570;SHT30;61850;54.980;73.298;2023-02-28T02:35:09;-2.21;85.65
73570;SHT30;61850;54.980;73.298;2023-02-28T02:40:22;-2.17;84.76
73570;SHT30;61850;54.980;73.298;2023-02-28T02:45:23;-2.11;84.82
73570;SHT30;61850;54.980;73.298;2023-02-28T02:47:53;-2.15;84.41
73570;SHT30;61850;54.980;73.298;2023-02-28T02:50:26;-2.17;84.49
73570;SHT30;61850;54.980;73.298;2023-02-28T02:52:58;-2.21;84.60
73570;SHT30;61850;54.980;73.298;2023-02-28T02:55:33;-2.31;84.55
73570;SHT30;61850;54.980;73.298;2023-02-28T02:58:07;-2.31;84.83
73570;SHT30;61850;54.980;73.298;2023-02-28T03:00:48;-2.37;85.27
73570;SHT30;61850;54.980;73.298;2023-02-28T03:03:16;-2.43;85.56
73570;SHT30;61850;54.980;73.298;2023-02-28T03:05:49;-2.47;86.01
73570;SHT30;61850;54.980;73.298;2023-02-28T03:08:15;-2.52;86.69
73570;SHT30;61850;54.980;73.298;2023-02-28T03:10:42;-2.62;87.05
73570;SHT30;61850;54.980;73.298;2023-02-28T03:18:28;-2.72;87.85
73570;SHT30;61850;54.980;73.298;2023-02-28T03:21:17;-2.86;87.83
73570;SHT30;61850;54.980;73.298;2023-02-28T03:26:20;-2.93;88.04
73570;SHT30;61850;54.980;73.298;2023-02-28T03:28:56;-2.96;88.37
73570;SHT30;61850;54.980;73.298;2023-02-28T03:31:37;-3.03;88.65
73570;SHT30;61850;54.980;73.298;2023-02-28T03:34:10;-3.06;88.80
73570;SHT30;61850;54.980;73.298;2023-02-28T03:36:41;-3.09;88.95
73570;SHT30;61850;54.980;73.298;2023-02-28T03:39:13;-3.07;89.09
73570;SHT30;61850;54.980;73.298;2023-02-28T03:41:45;-3.13;89.12
73570;SHT30;61850;54.980;73.298;2023-02-28T03:44:24;-3.16;89.22
73570;SHT30;61850;54.980;73.298;2023-02-28T03:47:10;-3.20;89.48
73570;SHT30;61850;54.980;73.298;2023-02-28T03:52:14;-3.17;89.91
73570;SHT30;61850;54.980;73.298;2023-02-28T03:58:41;-3.09;89.41
73570;SHT30;61850;54.980;73.298;2023-02-28T04:09:23;-2.99;88.88
73570;SHT30;61850;54.980;73.298;2023-02-28T04:11:50;-3.00;88.99
73570;SHT30;61850;54.980;73.298;2023-02-28T04:14:22;-2.96;88.92
73570;SHT30;61850;54.980;73.298;2023-02-28T04:16:49;-2.93;88.81
73570;SHT30;61850;54.980;73.298;2023-02-28T04:19:16;-2.85;88.67
73570;SHT30;61850;54.980;73.298;2023-02-28T04:21:53;-2.92;88.63
73570;SHT30;61850;54.980;73.298;2023-02-28T04:24:24;-2.95;88.69
73570;SHT30;61850;54.980;73.298;2023-02-28T04:27:01;-2.96;88.57
73570;SHT30;61850;54.980;73.298;2023-02-28T04:29:33;-2.96;88.82
73570;SHT30;61850;54.980;73.298;2023-02-28T04:32:09;-2.93;88.89
73570;SHT30;61850;54.980;73.298;2023-02-28T04:34:39;-2.96;88.90
73570;SHT30;61850;54.980;73.298;2023-02-28T04:37:05;-2.86;88.87
73570;SHT30;61850;54.980;73.298;2023-02-28T04:39:34;-2.82;88.71
73570;SHT30;61850;54.980;73.298;2023-02-28T04:42:00;-2.79;88.57
73570;SHT30;61850;54.980;73.298;2023-02-28T04:44:29;-2.72;88.58
73570;SHT30;61850;54.980;73.298;2023-02-28T04:47:04;-2.68;88.30
73570;SHT30;61850;54.980;73.298;2023-02-28T04:49:33;-2.61;88.17
73570;SHT30;61850;54.980;73.298;2023-02-28T04:51:59;-2.57;87.95
73570;SHT30;61850;54.980;73.298;2023-02-28T04:54:25;-2.58;87.79
73570;SHT30;61850;54.980;73.298;2023-02-28T04:56:52;-2.50;87.60
73570;SHT30;61850;54.980;73.298;2023-02-28T04:59:18;-2.58;87.59
73570;SHT30;61850;54.980;73.298;2023-02-28T05:01:48;-2.47;87.74
73570;SHT30;61850;54.980;73.298;2023-02-28T05:04:19;-2.44;87.49
73570;SHT30;61850;54.980;73.298;2023-02-28T05:06:55;-2.50;87.54
73570;SHT30;61850;54.980;73.298;2023-02-28T05:09:21;-2.37;87.64
73570;SHT30;61850;54.980;73.298;2023-02-28T05:11:47;-2.43;87.67
73570;SHT30;61850;54.980;73.298;2023-02-28T05:14:13;-2.43;87.75
73570;SHT30;61850;54.980;73.298;2023-02-28T05:16:39;-2.36;87.52
73570;SHT30;61850;54.980;73.298;2023-02-28T05:19:10;-2.36;87.41
73570;SHT30;61850;54.980;73.298;2023-02-28T05:21:38;-2.29;86.98
73570;SHT30;61850;54.980;73.298;2023-02-28T05:24:06;-2.24;87.01
73570;SHT30;61850;54.980;73.298;2023-02-28T05:26:36;-2.30;86.88
73570;SHT30;61850;54.980;73.298;2023-02-28T05:29:03;-2.31;86.85
73570;SHT30;61850;54.980;73.298;2023-02-28T05:31:40;-2.24;86.58
73570;SHT30;61850;54.980;73.298;2023-02-28T05:34:06;-2.23;86.56
73570;SHT30;61850;54.980;73.298;2023-02-28T05:36:32;-2.24;86.35
73570;SHT30;61850;54.980;73.298;2023-02-28T05:38:59;-2.31;86.37
73570;SHT30;61850;54.980;73.298;2023-02-28T05:41:25;-2.29;86.48
73570;SHT30;61850;54.980;73.298;2023-02-28T05:43:51;-2.33;86.36
73570;SHT30;61850;54.980;73.298;2023-02-28T05:46:17;-2.17;86.20
73570;SHT30;61850;54.980;73.298;2023-02-28T05:48:45;-2.19;86.28
73570;SHT30;61850;54.980;73.298;2023-02-28T05:51:12;-2.24;86.13
73570;SHT30;61850;54.980;73.298;2023-02-28T05:53:38;-2.26;86.47
73570;SHT30;61850;54.980;73.298;2023-02-28T05:56:04;-2.27;86.21
73570;SHT30;61850;54.980;73.298;2023-02-28T05:58:31;-2.21;86.15
73570;SHT30;61850;54.980;73.298;2023-02-28T06:03:53;-2.14;85.87
73570;SHT30;61850;54.980;73.298;2023-02-28T06:06:22;-2.10;85.81
73570;SHT30;61850;54.980;73.298;2023-02-28T06:08:49;-2.09;86.07
73570;SHT30;61850;54.980;73.298;2023-02-28T06:11:17;-2.09;86.32
73570;SHT30;61850;54.980;73.298;2023-02-28T06:13:46;-2.03;86.04
73570;SHT30;61850;54.980;73.298;2023-02-28T06:16:22;-1.94;86.06
73570;SHT30;61850;54.980;73.298;2023-02-28T06:18:49;-1.85;85.85
73570;SHT30;61850;54.980;73.298;2023-02-28T06:21:26;-1.78;85.84
73570;SHT30;61850;54.980;73.298;2023-02-28T06:23:57;-1.75;85.73
73570;SHT30;61850;54.980;73.298;2023-02-28T06:26:24;-1.73;85.92
73570;SHT30;61850;54.980;73.298;2023-02-28T06:28:50;-1.65;85.93
73570;SHT30;61850;54.980;73.298;2023-02-28T06:31:18;-1.69;86.11
73570;SHT30;61850;54.980;73.298;2023-02-28T06:33:45;-1.68;86.01
73570;SHT30;61850;54.980;73.298;2023-02-28T06:36:21;-1.52;85.60
73570;SHT30;61850;54.980;73.298;2023-02-28T06:38:49;-1.51;85.53
73570;SHT30;61850;54.980;73.298;2023-02-28T06:41:30;-1.54;85.39
73570;SHT30;61850;54.980;73.298;2023-02-28T06:44:13;-1.44;85.46
73570;SHT30;61850;54.980;73.298;2023-02-28T06:46:41;-1.51;85.27
73570;SHT30;61850;54.980;73.298;2023-02-28T06:49:09;-1.40;85.00
73570;SHT30;61850;54.980;73.298;2023-02-28T06:51:45;-1.37;84.78
73570;SHT30;61850;54.980;73.298;2023-02-28T06:54:12;-1.33;84.77
73570;SHT30;61850;54.980;73.298;2023-02-28T06:56:39;-1.34;84.54
73570;SHT30;61850;54.980;73.298;2023-02-28T06:59:06;-1.40;84.55
73570;SHT30;61850;54.980;73.298;2023-02-28T07:01:33;-1.38;84.53
73570;SHT30;61850;54.980;73.298;2023-02-28T07:04:09;-1.44;84.50
73570;SHT30;61850;54.980;73.298;2023-02-28T07:06:37;-1.43;84.53
73570;SHT30;61850;54.980;73.298;2023-02-28T07:09:04;-1.40;84.55
73570;SHT30;61850;54.980;73.298;2023-02-28T07:11:33;-1.45;84.31
73570;SHT30;61850;54.980;73.298;2023-02-28T07:14:06;-1.44;84.23
73570;SHT30;61850;54.980;73.298;2023-02-28T07:16:35;-1.44;84.22
73570;SHT30;61850;54.980;73.298;2023-02-28T07:19:11;-1.51;84.09
73570;SHT30;61850;54.980;73.298;2023-02-28T07:21:38;-1.40;84.02
73570;SHT30;61850;54.980;73.298;2023-02-28T07:24:05;-1.40;84.21
73570;SHT30;61850;54.980;73.298;2023-02-28T07:26:41;-1.55;84.31
73570;SHT30;61850;54.980;73.298;2023-02-28T07:29:08;-1.54;84.39
73570;SHT30;61850;54.980;73.298;2023-02-28T07:32:13;-1.58;84.48
73570;SHT30;61850;54.980;73.298;2023-02-28T07:34:56;-1.56;84.55
73570;SHT30;61850;54.980;73.298;2023-02-28T07:37:25;-1.52;84.46
73570;SHT30;61850;54.980;73.298;2023-02-28T07:39:57;-1.66;84.36
73570;SHT30;61850;54.980;73.298;2023-02-28T07:42:23;-1.65;84.69
73570;SHT30;61850;54.980;73.298;2023-02-28T07:44:55;-1.62;89.10
73570;SHT30;61850;54.980;73.298;2023-02-28T07:47:33;-1.59;87.73
73570;SHT30;61850;54.980;73.298;2023-02-28T07:49:59;-1.62;84.93
73570;SHT30;61850;54.980;73.298;2023-02-28T07:52:26;-1.64;85.13
73570;SHT30;61850;54.980;73.298;2023-02-28T07:55:04;-1.58;85.05
73570;SHT30;61850;54.980;73.298;2023-02-28T07:57:30;-1.51;84.95
73570;SHT30;61850;54.980;73.298;2023-02-28T08:00:07;-1.54;84.99
73570;SHT30;61850;54.980;73.298;2023-02-28T08:02:39;-1.55;85.07
73570;SHT30;61850;54.980;73.298;2023-02-28T08:05:06;-1.55;85.08
73570;SHT30;61850;54.980;73.298;2023-02-28T08:07:32;-1.43;85.15
73570;SHT30;61850;54.980;73.298;2023-02-28T08:09:59;-1.45;85.13
73570;SHT30;61850;54.980;73.298;2023-02-28T08:12:25;-1.44;85.40
73570;SHT30;61850;54.980;73.298;2023-02-28T08:14:52;-1.41;85.50
73570;SHT30;61850;54.980;73.298;2023-02-28T08:17:22;-1.37;85.41
73570;SHT30;61850;54.980;73.298;2023-02-28T08:19:59;-1.31;85.44
73570;SHT30;61850;54.980;73.298;2023-02-28T08:22:35;-1.25;85.29
73570;SHT30;61850;54.980;73.298;2023-02-28T08:25:01;-1.28;85.43
73570;SHT30;61850;54.980;73.298;2023-02-28T08:27:28;-1.37;85.45
73570;SHT30;61850;54.980;73.298;2023-02-28T08:29:54;-1.27;85.48
73570;SHT30;61850;54.980;73.298;2023-02-28T08:32:20;-1.33;85.63
73570;SHT30;61850;54.980;73.298;2023-02-28T08:34:49;-1.30;85.67
73570;SHT30;61850;54.980;73.298;2023-02-28T08:37:15;-1.27;85.62
73570;SHT30;61850;54.980;73.298;2023-02-28T08:39:41;-1.27;85.62
73570;SHT30;61850;54.980;73.298;2023-02-28T08:42:07;-1.25;85.68
73570;SHT30;61850;54.980;73.298;2023-02-28T08:44:34;-1.23;85.79
73570;SHT30;61850;54.980;73.298;2023-02-28T08:47:00;-1.18;85.67
73570;SHT30;61850;54.980;73.298;2023-02-28T08:49:26;-1.27;85.92
73570;SHT30;61850;54.980;73.298;2023-02-28T08:51:52;-1.20;85.82
73570;SHT30;61850;54.980;73.298;2023-02-28T08:54:20;-1.20;85.84
73570;SHT30;61850;54.980;73.298;2023-02-28T08:56:47;-1.17;85.91
73570;SHT30;61850;54.980;73.298;2023-02-28T08:59:16;-1.10;85.93
73570;SHT30;61850;54.980;73.298;2023-02-28T09:01:47;-1.14;85.87
73570;SHT30;61850;54.980;73.298;2023-02-28T09:04:16;-1.14;86.03
73570;SHT30;61850;54.980;73.298;2023-02-28T09:06:42;-1.13;86.17
73570;SHT30;61850;54.980;73.298;2023-02-28T09:09:10;-1.07;86.17
73570;SHT30;61850;54.980;73.298;2023-02-28T09:11:36;-1.11;86.11
73570;SHT30;61850;54.980;73.298;2023-02-28T09:14:12;-1.07;86.27
73570;SHT30;61850;54.980;73.298;2023-02-28T09:16:38;-1.14;86.43
73570;SHT30;61850;54.980;73.298;2023-02-28T09:19:16;-1.10;86.63
73570;SHT30;61850;54.980;73.298;2023-02-28T09:21:42;-1.13;86.63
73570;SHT30;61850;54.980;73.298;2023-02-28T09:24:08;-1.16;86.86
73570;SHT30;61850;54.980;73.298;2023-02-28T09:26:37;-1.10;86.92
73570;SHT30;61850;54.980;73.298;2023-02-28T09:29:03;-1.04;86.92
73570;SHT30;61850;54.980;73.298;2023-02-28T09:31:30;-1.07;86.88
73570;SHT30;61850;54.980;73.298;2023-02-28T09:34:03;-1.07;86.90
73570;SHT30;61850;54.980;73.298;2023-02-28T09:36:30;-1.01;87.04
73570;SHT30;61850;54.980;73.298;2023-02-28T09:38:56;-1.03;87.00
73570;SHT30;61850;54.980;73.298;2023-02-28T09:41:26;-1.01;87.04
73570;SHT30;61850;54.980;73.298;2023-02-28T09:43:59;-0.92;87.08
73570;SHT30;61850;54.980;73.298;2023-02-28T09:46:31;-0.82;86.97
73570;SHT30;61850;54.980;73.298;2023-02-28T09:49:00;-0.82;87.04
73570;SHT30;61850;54.980;73.298;2023-02-28T09:51:36;-0.79;87.11
73570;SHT30;61850;54.980;73.298;2023-02-28T09:54:08;-0.72;87.07
73570;SHT30;61850;54.980;73.298;2023-02-28T09:56:39;-0.76;87.13
73570;SHT30;61850;54.980;73.298;2023-02-28T09:59:31;-0.70;87.08
73570;SHT30;61850;54.980;73.298;2023-02-28T10:05:00;-0.65;87.58
73570;SHT30;61850;54.980;73.298;2023-02-28T10:10:05;-0.64;87.84
73570;SHT30;61850;54.980;73.298;2023-02-28T10:12:35;-0.64;87.94
73570;SHT30;61850;54.980;73.298;2023-02-28T10:15:04;-0.61;88.10
73570;SHT30;61850;54.980;73.298;2023-02-28T10:17:36;-0.54;88.15
73570;SHT30;61850;54.980;73.298;2023-02-28T10:20:05;-0.59;88.05
73570;SHT30;61850;54.980;73.298;2023-02-28T10:25:23;-0.61;88.29
73570;SHT30;61850;54.980;73.298;2023-02-28T10:27:54;-0.52;88.43
73570;SHT30;61850;54.980;73.298;2023-02-28T10:30:20;-0.49;94.75
73570;SHT30;61850;54.980;73.298;2023-02-28T10:32:50;-0.39;88.20
73570;SHT30;61850;54.980;73.298;2023-02-28T10:35:23;-0.41;87.98
73570;SHT30;61850;54.980;73.298;2023-02-28T10:37:50;-0.45;87.68
73570;SHT30;61850;54.980;73.298;2023-02-28T10:42:55;-0.46;87.70
73570;SHT30;61850;54.980;73.298;2023-02-28T10:45:22;-0.42;87.97
73570;SHT30;61850;54.980;73.298;2023-02-28T10:47:59;-0.37;87.96
73570;SHT30;61850;54.980;73.298;2023-02-28T10:50:39;-0.39;88.13
73570;SHT30;61850;54.980;73.298;2023-02-28T10:56:01;-0.45;88.26
73570;SHT30;61850;54.980;73.298;2023-02-28T10:59:22;-0.39;88.40
73570;SHT30;61850;54.980;73.298;2023-02-28T11:01:34;-0.37;88.47
73570;SHT30;61850;54.980;73.298;2023-02-28T11:04:32;-0.37;88.64
73570;SHT30;61850;54.980;73.298;2023-02-28T11:07:05;-0.37;88.93
73570;SHT30;61850;54.980;73.298;2023-02-28T11:12:06;-0.44;89.46
73570;SHT30;61850;54.980;73.298;2023-02-28T11:14:40;-0.42;89.15
73570;SHT30;61850;54.980;73.298;2023-02-28T11:17:26;-0.45;89.41
73570;SHT30;61850;54.980;73.298;2023-02-28T11:20:05;-0.48;95.57
73570;SHT30;61850;54.980;73.298;2023-02-28T11:22:35;-0.44;91.48
73570;SHT30;61850;54.980;73.298;2023-02-28T11:25:22;-0.42;89.72
73570;SHT30;61850;54.980;73.298;2023-02-28T11:28:01;-0.39;89.86
73570;SHT30;61850;54.980;73.298;2023-02-28T11:30:33;-0.46;89.95
73570;SHT30;61850;54.980;73.298;2023-02-28T11:35:59;-0.48;90.04
73570;SHT30;61850;54.980;73.298;2023-02-28T11:38:27;-0.52;90.11
73570;SHT30;61850;54.980;73.298;2023-02-28T11:43:53;-0.49;90.23
73570;SHT30;61850;54.980;73.298;2023-02-28T11:46:35;-0.54;89.95
73570;SHT30;61850;54.980;73.298;2023-02-28T11:49:12;-0.55;89.93
73570;SHT30;61850;54.980;73.298;2023-02-28T11:51:53;-0.58;89.89
73570;SHT30;61850;54.980;73.298;2023-02-28T11:56:58;-0.52;90.15
73570;SHT30;61850;54.980;73.298;2023-02-28T11:59:30;-0.55;90.20
73570;SHT30;61850;54.980;73.298;2023-02-28T12:02:18;-0.52;90.24
73570;SHT30;61850;54.980;73.298;2023-02-28T12:10:21;-0.56;90.26
73570;SHT30;61850;54.980;73.298;2023-02-28T12:26:06;-0.56;89.99
73570;SHT30;61850;54.980;73.298;2023-02-28T12:28:48;-0.58;90.19
73570;SHT30;61850;54.980;73.298;2023-02-28T12:31:33;-0.64;90.35
73570;SHT30;61850;54.980;73.298;2023-02-28T12:34:05;-0.58;90.45
73570;SHT30;61850;54.980;73.298;2023-02-28T12:37:31;-0.64;90.53
73570;SHT30;61850;54.980;73.298;2023-02-28T12:40:03;-0.64;90.50
73570;SHT30;61850;54.980;73.298;2023-02-28T12:42:32;-0.68;90.37
73570;SHT30;61850;54.980;73.298;2023-02-28T12:45:01;-0.66;90.53
73570;SHT30;61850;54.980;73.298;2023-02-28T12:47:28;-0.65;90.61
73570;SHT30;61850;54.980;73.298;2023-02-28T12:50:05;-0.66;90.73
73570;SHT30;61850;54.980;73.298;2023-02-28T12:52:51;-0.68;90.83
73570;SHT30;61850;54.980;73.298;2023-02-28T13:03:52;-0.66;90.25
73570;SHT30;61850;54.980;73.298;2023-02-28T13:06:38;-0.65;90.10
73570;SHT30;61850;54.980;73.298;2023-02-28T13:09:17;-0.65;90.05
73570;SHT30;61850;54.980;73.298;2023-02-28T13:11:45;-0.61;89.93
73570;SHT30;61850;54.980;73.298;2023-02-28T13:16:55;-0.58;89.79
73570;SHT30;61850;54.980;73.298;2023-02-28T13:19:33;-0.56;89.68
73570;SHT30;61850;54.980;73.298;2023-02-28T13:22:01;-0.56;89.56
73570;SHT30;61850;54.980;73.298;2023-02-28T13:24:43;-0.59;89.48
73570;SHT30;61850;54.980;73.298;2023-02-28T13:29:36;-0.61;89.42
73570;SHT30;61850;54.980;73.298;2023-02-28T13:34:41;-0.58;89.19
73570;SHT30;61850;54.980;73.298;2023-02-28T13:39:54;-0.56;89.24
73570;SHT30;61850;54.980;73.298;2023-02-28T14:01:20;-0.56;89.27
73570;SHT30;61850;54.980;73.298;2023-02-28T14:06:35;-0.51;89.31
73570;SHT30;61850;54.980;73.298;2023-02-28T14:09:03;-0.54;89.29
73570;SHT30;61850;54.980;73.298;2023-02-28T14:11:36;-0.55;89.38
73570;SHT30;61850;54.980;73.298;2023-02-28T14:14:53;-0.56;89.42
73570;SHT30;61850;54.980;73.298;2023-02-28T14:16:57;-0.54;89.41
73570;SHT30;61850;54.980;73.298;2023-02-28T14:19:29;-0.55;89.45
73570;SHT30;61850;54.980;73.298;2023-02-28T14:22:00;-0.58;89.50
73570;SHT30;61850;54.980;73.298;2023-02-28T14:32:35;-0.51;89.31
73570;SHT30;61850;54.980;73.298;2023-02-28T14:37:46;-0.52;89.39
73570;SHT30;61850;54.980;73.298;2023-02-28T14:40:22;-0.49;89.43
73570;SHT30;61850;54.980;73.298;2023-02-28T14:42:58;-0.46;89.40
73570;SHT30;61850;54.980;73.298;2023-02-28T14:45:36;-0.51;89.47
73570;SHT30;61850;54.980;73.298;2023-02-28T14:48:15;-0.49;89.53
73570;SHT30;61850;54.980;73.298;2023-02-28T14:51:00;-0.52;89.60
73570;SHT30;61850;54.980;73.298;2023-02-28T14:53:37;-0.45;89.56
73570;SHT30;61850;54.980;73.298;2023-02-28T14:56:24;-0.49;89.66
73570;SHT30;61850;54.980;73.298;2023-02-28T14:58:54;-0.55;89.67
73570;SHT30;61850;54.980;73.298;2023-02-28T15:01:21;-0.49;89.74
73570;SHT30;61850;54.980;73.298;2023-02-28T15:03:59;-0.51;89.74
73570;SHT30;61850;54.980;73.298;2023-02-28T15:06:30;-0.46;89.72
73570;SHT30;61850;54.980;73.298;2023-02-28T15:09:09;-0.45;89.74
73570;SHT30;61850;54.980;73.298;2023-02-28T15:11:37;-0.49;89.77
73570;SHT30;61850;54.980;73.298;2023-02-28T15:14:05;-0.49;89.83
73570;SHT30;61850;54.980;73.298;2023-02-28T15:16:42;-0.44;89.80
73570;SHT30;61850;54.980;73.298;2023-02-28T15:19:15;-0.45;89.87
73570;SHT30;61850;54.980;73.298;2023-02-28T15:21:45;-0.45;89.87
73570;SHT30;61850;54.980;73.298;2023-02-28T15:26:42;-0.46;89.95
73570;SHT30;61850;54.980;73.298;2023-02-28T15:29:13;-0.46;90.07
73570;SHT30;61850;54.980;73.298;2023-02-28T15:31:44;-0.44;90.00
73570;SHT30;61850;54.980;73.298;2023-02-28T15:34:22;-0.46;89.99
73570;SHT30;61850;54.980;73.298;2023-02-28T15:36:57;-0.44;90.00
73570;SHT30;61850;54.980;73.298;2023-02-28T15:39:26;-0.39;90.09
73570;SHT30;61850;54.980;73.298;2023-02-28T15:42:09;-0.51;90.18
73570;SHT30;61850;54.980;73.298;2023-02-28T15:44:35;-0.44;90.21
73570;SHT30;61850;54.980;73.298;2023-02-28T15:47:22;-0.42;90.22
73570;SHT30;61850;54.980;73.298;2023-02-28T15:49:59;-0.44;90.19
73570;SHT30;61850;54.980;73.298;2023-02-28T15:52:34;-0.42;90.18
73570;SHT30;61850;54.980;73.298;2023-02-28T15:55:26;-0.41;90.28
73570;SHT30;61850;54.980;73.298;2023-02-28T15:57:53;-0.44;90.31
73570;SHT30;61850;54.980;73.298;2023-02-28T16:00:31;-0.37;90.22
73570;SHT30;61850;54.980;73.298;2023-02-28T16:03:00;-0.41;90.24
73570;SHT30;61850;54.980;73.298;2023-02-28T16:05:31;-0.39;90.23
73570;SHT30;61850;54.980;73.298;2023-02-28T16:08:00;-0.37;90.23
73570;SHT30;61850;54.980;73.298;2023-02-28T16:10:27;-0.37;90.26
73570;SHT30;61850;54.980;73.298;2023-02-28T16:13:05;-0.35;90.17
73570;SHT30;61850;54.980;73.298;2023-02-28T16:15:35;-0.37;90.22
73570;SHT30;61850;54.980;73.298;2023-02-28T16:18:12;-0.34;90.20
73570;SHT30;61850;54.980;73.298;2023-02-28T16:20:39;-0.37;90.14
73570;SHT30;61850;54.980;73.298;2023-02-28T16:23:08;-0.35;90.09
73570;SHT30;61850;54.980;73.298;2023-02-28T16:25:44;-0.31;89.99
73570;SHT30;61850;54.980;73.298;2023-02-28T16:28:17;-0.35;90.09
73570;SHT30;61850;54.980;73.298;2023-02-28T16:30:56;-0.25;90.01
73570;SHT30;61850;54.980;73.298;2023-02-28T16:33:34;-0.27;89.93
73570;SHT30;61850;54.980;73.298;2023-02-28T16:36:01;-0.29;89.99
73570;SHT30;61850;54.980;73.298;2023-02-28T16:38:35;-0.27;89.98
73570;SHT30;61850;54.980;73.298;2023-02-28T16:41:02;-0.25;90.03
73570;SHT30;61850;54.980;73.298;2023-02-28T16:43:33;-0.24;89.88
73570;SHT30;61850;54.980;73.298;2023-02-28T16:45:59;-0.25;89.96
73570;SHT30;61850;54.980;73.298;2023-02-28T16:51:17;-0.28;89.93
73570;SHT30;61850;54.980;73.298;2023-02-28T16:53:49;-0.25;89.95
73570;SHT30;61850;54.980;73.298;2023-02-28T16:56:25;-0.28;89.99
73570;SHT30;61850;54.980;73.298;2023-02-28T16:58:56;-0.27;89.97
73570;SHT30;61850;54.980;73.298;2023-02-28T17:01:27;-0.27;90.02
73570;SHT30;61850;54.980;73.298;2023-02-28T17:03:54;-0.27;90.14
73570;SHT30;61850;54.980;73.298;2023-02-28T17:06:23;-0.27;90.26
73570;SHT30;61850;54.980;73.298;2023-02-28T17:08:50;-0.27;90.33
73570;SHT30;61850;54.980;73.298;2023-02-28T17:11:29;-0.24;90.27
73570;SHT30;61850;54.980;73.298;2023-02-28T17:13:56;-0.25;90.24
73570;SHT30;61850;54.980;73.298;2023-02-28T17:16:25;-0.25;90.31
73570;SHT30;61850;54.980;73.298;2023-02-28T17:18:58;-0.24;90.36
73570;SHT30;61850;54.980;73.298;2023-02-28T17:21:35;-0.19;90.32
73570;SHT30;61850;54.980;73.298;2023-02-28T17:24:08;-0.18;90.33
73570;SHT30;61850;54.980;73.298;2023-02-28T17:26:34;-0.14;90.22
73570;SHT30;61850;54.980;73.298;2023-02-28T17:29:01;-0.15;90.11
73570;SHT30;61850;54.980;73.298;2023-02-28T17:31:29;-0.14;90.11
73570;SHT30;61850;54.980;73.298;2023-02-28T17:45:33;-0.18;90.59
73570;SHT30;61850;54.980;73.298;2023-02-28T17:48:09;-0.18;90.51
73570;SHT30;61850;54.980;73.298;2023-02-28T17:50:35;-0.14;90.55
73570;SHT30;61850;54.980;73.298;2023-02-28T17:53:02;-0.18;90.68
73570;SHT30;61850;54.980;73.298;2023-02-28T17:55:33;-0.11;90.64
73570;SHT30;61850;54.980;73.298;2023-02-28T17:58:00;-0.13;90.75
73570;SHT30;61850;54.980;73.298;2023-02-28T18:00:27;-0.11;90.68
73570;SHT30;61850;54.980;73.298;2023-02-28T18:02:54;-0.08;90.72
73570;SHT30;61850;54.980;73.298;2023-02-28T18:05:26;-0.07;90.68
73570;SHT30;61850;54.980;73.298;2023-02-28T18:07:53;-0.04;90.57
73570;SHT30;61850;54.980;73.298;2023-02-28T18:10:20;-0.04;90.52
73570;SHT30;61850;54.980;73.298;2023-02-28T18:12:47;-0.06;90.42
73570;SHT30;61850;54.980;73.298;2023-02-28T18:15:21;-0.04;90.42
73570;SHT30;61850;54.980;73.298;2023-02-28T18:17:57;-0.01;90.33
73570;SHT30;61850;54.980;73.298;2023-02-28T18:20:23;-0.03;90.31
73570;SHT30;61850;54.980;73.298;2023-02-28T18:22:50;-0.01;90.26
73570;SHT30;61850;54.980;73.298;2023-02-28T18:25:17;-0.03;90.22
73570;SHT30;61850;54.980;73.298;2023-02-28T18:27:44;-0.01;90.14
73570;SHT30;61850;54.980;73.298;2023-02-28T18:30:19;-0.03;90.09
73570;SHT30;61850;54.980;73.298;2023-02-28T18:32:47;-0.03;90.11
73570;SHT30;61850;54.980;73.298;2023-02-28T18:35:15;0.04;90.04
73570;SHT30;61850;54.980;73.298;2023-02-28T18:38:05;0.02;90.00
73570;SHT30;61850;54.980;73.298;2023-02-28T18:40:37;-0.04;90.22
73570;SHT30;61850;54.980;73.298;2023-02-28T18:43:06;0.02;95.04
73570;SHT30;61850;54.980;73.298;2023-02-28T18:45:36;0.03;94.86
73570;SHT30;61850;54.980;73.298;2023-02-28T18:48:04;0.03;93.53
73570;SHT30;61850;54.980;73.298;2023-02-28T18:50:41;0.02;90.41